createdAt,value
2019-05-07T00:01:34.138Z,7.82
2019-05-07T00:04:01.977Z,7.95
2019-05-07T00:06:28.822Z,7.94
2019-05-07T00:08:56.319Z,7.89
2019-05-07T00:11:23.766Z,7.94
2019-05-07T00:13:52.278Z,7.87
2019-05-07T00:16:18.731Z,7.83
2019-05-07T00:18:46.215Z,7.90
2019-05-07T00:21:13.658Z,7.94
2019-05-07T00:23:43.158Z,8.04
2019-05-07T00:26:08.602Z,8.12
2019-05-07T00:28:36.030Z,8.07
2019-05-07T00:31:03.503Z,8.03
2019-05-07T00:33:32.353Z,7.98
2019-05-07T00:35:58.437Z,7.96
2019-05-07T00:38:25.883Z,7.97
2019-05-07T00:40:53.719Z,7.89
2019-05-07T00:43:22.675Z,7.87
2019-05-07T00:46:04.406Z,7.87
2019-05-07T00:48:32.880Z,7.78
2019-05-07T00:53:56.329Z,8.07
2019-05-07T00:56:23.815Z,7.89
2019-05-07T00:58:52.748Z,7.73
2019-05-07T01:01:18.764Z,7.57
2019-05-07T01:03:46.200Z,7.51
2019-05-07T01:06:13.646Z,7.42
2019-05-07T01:08:43.049Z,7.42
2019-05-07T01:11:08.607Z,7.49
2019-05-07T01:13:36.043Z,7.56
2019-05-07T01:16:03.492Z,7.55
2019-05-07T01:18:32.403Z,7.48
2019-05-07T01:20:58.559Z,7.36
2019-05-07T01:23:26.015Z,7.39
2019-05-07T01:25:53.490Z,7.46
2019-05-07T01:28:22.320Z,7.45
2019-05-07T01:30:48.423Z,7.48
2019-05-07T01:33:35.568Z,7.39
2019-05-07T01:36:10.448Z,7.35
2019-05-07T01:38:38.025Z,7.36
2019-05-07T01:41:06.636Z,7.35
2019-05-07T01:43:34.297Z,7.38
2019-05-07T01:46:06.299Z,7.40
2019-05-07T01:48:33.840Z,7.37
2019-05-07T01:51:03.446Z,7.34
2019-05-07T01:53:29.553Z,7.29
2019-05-07T01:55:57.193Z,7.32
2019-05-07T01:58:26.833Z,7.36
2019-05-07T02:00:54.541Z,7.35
2019-05-07T02:03:28.831Z,7.27
2019-05-07T02:05:57.587Z,7.30
2019-05-07T02:08:32.781Z,7.29
2019-05-07T02:10:58.507Z,7.20
2019-05-07T02:13:26.074Z,7.12
2019-05-07T02:15:58.559Z,7.10
2019-05-07T02:18:21.847Z,7.12
2019-05-07T02:20:49.246Z,7.13
2019-05-07T02:23:17.168Z,7.13
2019-05-07T02:25:44.785Z,7.13
2019-05-07T02:28:12.918Z,7.05
2019-05-07T02:30:40.171Z,6.97
2019-05-07T02:33:07.635Z,6.97
2019-05-07T02:35:35.169Z,6.91
2019-05-07T02:38:08.096Z,6.81
2019-05-07T02:40:35.552Z,6.65
2019-05-07T02:43:03.166Z,6.67
2019-05-07T02:45:33.189Z,6.69
2019-05-07T02:47:58.806Z,6.75
2019-05-07T02:50:28.134Z,6.84
2019-05-07T02:52:58.057Z,6.77
2019-05-07T02:55:25.531Z,6.69
2019-05-07T02:57:54.011Z,6.61
2019-05-07T03:00:23.783Z,6.64
2019-05-07T03:02:48.084Z,6.69
2019-05-07T03:05:15.556Z,6.71
2019-05-07T03:07:43.030Z,6.75
2019-05-07T03:10:13.637Z,6.75
2019-05-07T03:12:38.007Z,6.79
2019-05-07T03:15:05.498Z,6.85
2019-05-07T03:17:33.511Z,6.84
2019-05-07T03:20:03.169Z,6.73
2019-05-07T03:22:28.114Z,6.75
2019-05-07T03:24:56.099Z,6.69
2019-05-07T03:27:23.846Z,6.73
2019-05-07T03:29:53.513Z,6.75
2019-05-07T03:32:27.532Z,6.73
2019-05-07T03:34:57.449Z,6.76
2019-05-07T03:37:19.864Z,6.76
2019-05-07T03:39:46.868Z,6.74
2019-05-07T03:42:13.907Z,6.79
2019-05-07T03:47:37.182Z,7.18
2019-05-07T03:50:04.220Z,7.09
2019-05-07T03:52:33.530Z,6.95
2019-05-07T03:54:58.250Z,6.88
2019-05-07T03:57:25.252Z,6.89
2019-05-07T03:59:53.355Z,6.89
2019-05-07T04:02:19.348Z,6.83
2019-05-07T04:04:46.421Z,6.73
2019-05-07T04:07:14.151Z,6.65
2019-05-07T04:09:43.479Z,6.66
2019-05-07T04:12:07.683Z,6.70
2019-05-07T04:14:34.931Z,6.77
2019-05-07T04:17:14.539Z,6.74
2019-05-07T04:19:28.824Z,6.72
2019-05-07T04:21:55.844Z,6.69
2019-05-07T04:24:26.691Z,6.62
2019-05-07T04:26:55.558Z,6.48
2019-05-07T04:29:23.194Z,6.25
2019-05-07T04:31:50.065Z,6.21
2019-05-07T04:34:17.560Z,6.19
2019-05-07T04:36:45.017Z,6.19
2019-05-07T04:39:13.285Z,6.21
2019-05-07T04:41:39.973Z,6.21
2019-05-07T04:44:07.421Z,6.32
2019-05-07T04:46:34.882Z,6.57
2019-05-07T04:49:03.776Z,6.68
2019-05-07T04:51:29.842Z,6.80
2019-05-07T04:53:57.346Z,6.94
2019-05-07T04:56:24.362Z,7.08
2019-05-07T04:58:53.107Z,7.24
2019-05-07T05:01:18.406Z,7.34
2019-05-07T05:03:45.432Z,7.44
2019-05-07T05:06:13.721Z,7.47
2019-05-07T05:08:43.255Z,7.47
2019-05-07T05:11:07.907Z,7.69
2019-05-07T05:13:35.394Z,7.86
2019-05-07T05:16:02.939Z,7.99
2019-05-07T05:18:29.927Z,8.02
2019-05-07T05:20:57.814Z,8.10
2019-05-07T05:23:26.694Z,8.44
2019-05-07T05:25:54.166Z,8.71
2019-05-07T05:28:21.973Z,8.83
2019-05-07T05:30:49.822Z,9.02
2019-05-07T05:33:17.358Z,9.17
2019-05-07T05:35:44.862Z,9.05
2019-05-07T05:38:12.797Z,8.91
2019-05-07T05:40:42.757Z,8.70
2019-05-07T05:43:12.861Z,8.61
2019-05-07T05:45:45.995Z,8.75
2019-05-07T05:48:13.769Z,8.94
2019-05-07T05:53:34.970Z,9.68
2019-05-07T05:56:04.948Z,9.83
2019-05-07T05:58:47.377Z,9.57
2019-05-07T06:01:22.443Z,9.63
2019-05-07T06:03:58.838Z,9.65
2019-05-07T06:06:29.223Z,9.76
2019-05-07T06:12:02.337Z,10.10
2019-05-07T06:14:30.222Z,10.16
2019-05-07T06:17:13.382Z,10.22
2019-05-07T06:20:02.775Z,10.32
2019-05-07T06:22:39.062Z,10.37
2019-05-07T06:25:07.325Z,10.41
2019-05-07T06:27:34.847Z,10.50
2019-05-07T06:30:04.816Z,10.52
2019-05-07T06:32:31.920Z,10.29
2019-05-07T06:34:57.293Z,10.24
2019-05-07T06:37:25.044Z,10.27
2019-05-07T06:39:54.308Z,10.29
2019-05-07T06:42:23.738Z,10.34
2019-05-07T06:44:56.811Z,10.11
2019-05-07T06:47:24.259Z,9.82
2019-05-07T06:49:52.343Z,9.63
2019-05-07T06:52:19.393Z,9.52
2019-05-07T06:54:46.851Z,9.51
2019-05-07T06:57:14.615Z,9.48
2019-05-07T06:59:42.479Z,9.55
2019-05-07T07:02:15.965Z,9.59
2019-05-07T07:04:43.659Z,9.59
2019-05-07T07:07:27.234Z,9.48
2019-05-07T07:09:53.354Z,9.57
2019-05-07T07:12:26.442Z,9.72
2019-05-07T07:14:54.019Z,9.76
2019-05-07T07:17:22.289Z,10.00
2019-05-07T07:19:49.076Z,10.20
2019-05-07T07:22:16.551Z,10.41
2019-05-07T07:24:44.019Z,10.58
2019-05-07T07:27:13.202Z,10.90
2019-05-07T07:29:47.283Z,11.24
2019-05-07T07:32:14.775Z,11.53
2019-05-07T07:34:42.914Z,11.48
2019-05-07T07:37:23.294Z,11.50
2019-05-07T07:39:52.353Z,11.53
2019-05-07T07:42:17.482Z,11.39
2019-05-07T07:44:45.357Z,11.25
2019-05-07T07:47:12.943Z,11.29
2019-05-07T07:49:41.942Z,11.43
2019-05-07T07:52:06.779Z,11.64
2019-05-07T07:54:33.811Z,11.57
2019-05-07T07:57:02.323Z,11.53
2019-05-07T07:59:43.564Z,11.71
2019-05-07T08:02:12.381Z,11.83
2019-05-07T08:04:38.646Z,11.92
2019-05-07T08:07:05.759Z,12.12
2019-05-07T08:09:32.907Z,12.22
2019-05-07T08:12:02.422Z,12.31
2019-05-07T08:14:27.122Z,12.35
2019-05-07T08:16:54.170Z,12.14
2019-05-07T08:19:22.734Z,12.13
2019-05-07T08:21:48.548Z,12.14
2019-05-07T08:24:16.011Z,12.23
2019-05-07T08:26:43.482Z,12.24
2019-05-07T08:29:11.953Z,12.28
2019-05-07T08:31:42.542Z,12.35
2019-05-07T08:37:03.005Z,12.65
2019-05-07T08:39:32.552Z,12.64
2019-05-07T08:41:58.982Z,12.76
2019-05-07T08:44:32.526Z,12.83
2019-05-07T08:47:14.034Z,12.67
2019-05-07T08:49:43.401Z,12.71
2019-05-07T08:52:09.384Z,12.40
2019-05-07T08:54:36.832Z,12.29
2019-05-07T08:57:05.518Z,12.28
2019-05-07T08:59:33.660Z,12.64
2019-05-07T09:02:03.005Z,13.03
2019-05-07T09:04:29.989Z,13.30
2019-05-07T09:06:58.406Z,13.41
2019-05-07T09:09:27.104Z,13.57
2019-05-07T09:11:54.643Z,13.60
2019-05-07T09:14:24.481Z,13.70
2019-05-07T09:16:50.055Z,13.81
2019-05-07T09:19:17.729Z,13.88
2019-05-07T09:21:45.409Z,13.80
2019-05-07T09:24:12.870Z,13.77
2019-05-07T09:26:41.774Z,13.94
2019-05-07T09:29:11.684Z,14.16
2019-05-07T09:31:42.051Z,14.25
2019-05-07T09:34:08.774Z,14.36
2019-05-07T09:36:36.615Z,14.46
2019-05-07T09:39:04.219Z,14.52
2019-05-07T09:41:32.706Z,14.67
2019-05-07T09:44:00.048Z,14.78
2019-05-07T09:46:27.562Z,14.90
2019-05-07T09:48:55.077Z,15.01
2019-05-07T09:51:22.719Z,15.08
2019-05-07T09:53:51.988Z,15.13
2019-05-07T09:56:17.930Z,15.25
2019-05-07T09:58:45.409Z,15.36
2019-05-07T10:01:12.935Z,15.47
2019-05-07T10:03:42.755Z,15.54
2019-05-07T10:06:07.978Z,15.67
2019-05-07T10:08:35.547Z,15.90
2019-05-07T10:11:03.042Z,15.99
2019-05-07T10:13:30.486Z,16.06
2019-05-07T10:15:57.959Z,16.26
2019-05-07T10:18:25.532Z,16.31
2019-05-07T10:20:53.150Z,16.46
2019-05-07T10:23:22.794Z,16.57
2019-05-07T10:25:48.732Z,16.70
2019-05-07T10:28:16.196Z,16.83
2019-05-07T10:30:43.838Z,16.97
2019-05-07T10:33:12.403Z,16.89
2019-05-07T10:35:39.691Z,16.72
2019-05-07T10:38:07.138Z,16.66
2019-05-07T10:40:34.691Z,16.82
2019-05-07T10:43:03.073Z,16.96
2019-05-07T10:45:36.412Z,17.10
2019-05-07T10:48:05.867Z,17.29
2019-05-07T10:50:38.873Z,17.31
2019-05-07T10:53:02.068Z,17.48
2019-05-07T10:55:28.850Z,17.82
2019-05-07T10:57:56.360Z,17.96
2019-05-07T11:00:23.871Z,18.07
2019-05-07T11:02:51.843Z,18.30
2019-05-07T11:05:18.859Z,18.47
2019-05-07T11:07:46.320Z,18.71
2019-05-07T11:10:13.882Z,18.94
2019-05-07T11:12:42.466Z,19.03
2019-05-07T11:15:09.032Z,19.21
2019-05-07T11:17:41.893Z,19.36
2019-05-07T11:20:07.703Z,19.50
2019-05-07T11:22:35.259Z,19.74
2019-05-07T11:25:03.125Z,20.06
2019-05-07T11:27:30.314Z,20.19
2019-05-07T11:29:57.811Z,20.26
2019-05-07T11:32:24.909Z,20.35
2019-05-07T11:34:52.851Z,20.52
2019-05-07T11:37:19.112Z,20.59
2019-05-07T11:39:46.097Z,20.66
2019-05-07T11:42:15.270Z,20.74
2019-05-07T11:44:42.448Z,20.97
2019-05-07T11:47:15.018Z,21.19
2019-05-07T11:52:39.623Z,21.73
2019-05-07T11:55:06.651Z,21.75
2019-05-07T11:57:33.750Z,21.56
2019-05-07T12:00:02.803Z,21.61
2019-05-07T12:02:28.817Z,21.82
2019-05-07T12:04:56.276Z,22.06
2019-05-07T12:07:23.783Z,22.25
2019-05-07T12:09:52.597Z,22.49
2019-05-07T12:12:17.929Z,22.60
2019-05-07T12:14:44.905Z,22.33
2019-05-07T12:17:12.052Z,22.04
2019-05-07T12:19:38.949Z,21.99
2019-05-07T12:22:05.979Z,22.27
2019-05-07T12:24:32.969Z,22.53
2019-05-07T12:26:59.965Z,22.60
2019-05-07T12:29:26.977Z,22.89
2019-05-07T12:31:55.851Z,23.02
2019-05-07T12:34:22.937Z,23.17
2019-05-07T12:36:49.840Z,23.25
2019-05-07T12:39:16.822Z,23.34
2019-05-07T12:41:43.829Z,23.36
2019-05-07T12:44:12.749Z,23.43
2019-05-07T12:46:37.932Z,23.40
2019-05-07T12:49:04.956Z,23.75
2019-05-07T12:51:37.229Z,23.80
2019-05-07T12:54:19.615Z,23.83
2019-05-07T12:56:46.663Z,23.74
2019-05-07T12:59:14.041Z,23.57
2019-05-07T13:01:52.888Z,23.51
2019-05-07T13:04:32.365Z,23.37
2019-05-07T13:07:02.487Z,23.29
2019-05-07T13:09:38.581Z,23.22
2019-05-07T13:12:05.922Z,23.27
2019-05-07T13:14:35.134Z,23.52
2019-05-07T13:17:02.976Z,23.63
2019-05-07T13:22:10.049Z,24.00
2019-05-07T13:24:38.967Z,24.01
2019-05-07T13:27:09.386Z,24.14
2019-05-07T13:29:44.920Z,24.37
2019-05-07T13:32:12.202Z,24.32
2019-05-07T13:34:38.449Z,24.45
2019-05-07T13:37:21.922Z,24.43
2019-05-07T13:39:59.106Z,24.32
2019-05-07T13:42:52.274Z,24.14
2019-05-07T13:45:24.495Z,24.13
2019-05-07T13:47:51.781Z,23.87
2019-05-07T13:50:18.652Z,23.83
2019-05-07T13:52:46.520Z,24.14
2019-05-07T13:55:14.011Z,24.42
2019-05-07T13:57:41.713Z,24.54
2019-05-07T14:00:09.530Z,24.52
2019-05-07T14:02:37.028Z,24.53
2019-05-07T14:05:04.712Z,24.58
2019-05-07T14:07:33.146Z,24.71
2019-05-07T14:10:02.086Z,24.71
2019-05-07T14:12:28.808Z,24.65
2019-05-07T14:14:56.295Z,23.99
2019-05-07T14:17:23.808Z,24.00
2019-05-07T14:19:53.081Z,24.04
2019-05-07T14:22:19.378Z,24.09
2019-05-07T14:24:47.857Z,23.99
2019-05-07T14:27:17.027Z,23.97
2019-05-07T14:29:44.761Z,23.98
2019-05-07T14:32:13.156Z,24.00
2019-05-07T14:34:46.828Z,24.12
2019-05-07T14:37:16.819Z,23.75
2019-05-07T14:39:44.566Z,23.57
2019-05-07T14:42:12.895Z,23.27
2019-05-07T14:44:45.574Z,23.16
2019-05-07T14:47:13.231Z,23.30
2019-05-07T14:49:41.559Z,23.46
2019-05-07T14:52:09.498Z,23.23
2019-05-07T14:54:37.674Z,23.12
2019-05-07T14:57:06.196Z,22.96
2019-05-07T14:59:33.780Z,22.79
2019-05-07T15:02:02.868Z,22.49
2019-05-07T15:04:30.072Z,22.37
2019-05-07T15:07:04.790Z,22.50
2019-05-07T15:09:32.407Z,22.80
2019-05-07T15:12:02.220Z,22.84
2019-05-07T15:14:29.212Z,22.84
2019-05-07T15:16:56.864Z,22.51
2019-05-07T15:19:25.206Z,22.49
2019-05-07T15:21:53.688Z,22.65
2019-05-07T15:24:22.080Z,22.50
2019-05-07T15:26:49.733Z,22.54
2019-05-07T15:29:17.219Z,22.71
2019-05-07T15:31:51.712Z,22.85
2019-05-07T15:34:19.089Z,22.72
2019-05-07T15:36:47.737Z,22.33
2019-05-07T15:39:15.190Z,22.15
2019-05-07T15:41:42.741Z,22.07
2019-05-07T15:44:14.401Z,22.20
2019-05-07T15:46:42.806Z,22.36
2019-05-07T15:49:09.795Z,22.37
2019-05-07T15:51:38.475Z,22.29
2019-05-07T15:54:06.143Z,22.28
2019-05-07T15:56:38.441Z,22.37
2019-05-07T15:59:05.910Z,22.55
2019-05-07T16:01:34.528Z,22.50
2019-05-07T16:04:02.811Z,22.33
2019-05-07T16:06:32.205Z,22.25
2019-05-07T16:08:59.016Z,22.28
2019-05-07T16:11:26.495Z,22.12
2019-05-07T16:13:59.649Z,22.04
2019-05-07T16:16:27.928Z,21.80
2019-05-07T16:19:01.895Z,21.77
2019-05-07T16:21:28.817Z,21.82
2019-05-07T16:23:56.885Z,21.80
2019-05-07T16:26:24.383Z,21.84
2019-05-07T16:28:58.856Z,21.77
2019-05-07T16:31:26.795Z,21.60
2019-05-07T16:33:54.706Z,21.49
2019-05-07T16:36:28.748Z,21.35
2019-05-07T16:38:57.054Z,21.29
2019-05-07T16:41:26.622Z,21.30
2019-05-07T16:43:54.153Z,21.28
2019-05-07T16:46:22.544Z,21.25
2019-05-07T16:48:49.858Z,21.19
2019-05-07T16:51:17.326Z,21.11
2019-05-07T16:53:45.654Z,21.04
2019-05-07T16:56:14.481Z,20.89
2019-05-07T16:58:43.890Z,20.66
2019-05-07T17:01:13.114Z,20.51
2019-05-07T17:03:47.136Z,20.31
2019-05-07T17:06:17.347Z,19.98
2019-05-07T17:08:47.387Z,19.74
2019-05-07T17:11:18.122Z,19.60
2019-05-07T17:13:46.702Z,19.47
2019-05-07T17:16:14.180Z,19.31
2019-05-07T17:18:42.916Z,19.26
2019-05-07T17:21:12.214Z,19.21
2019-05-07T17:23:44.611Z,19.16
2019-05-07T17:26:07.067Z,19.08
2019-05-07T17:28:34.523Z,18.92
2019-05-07T17:31:03.068Z,18.87
2019-05-07T17:33:31.816Z,18.78
2019-05-07T17:35:57.046Z,18.65
2019-05-07T17:38:24.544Z,18.59
2019-05-07T17:41:09.876Z,18.58
2019-05-07T17:43:24.618Z,18.61
2019-05-07T17:45:52.452Z,18.56
2019-05-07T17:48:19.705Z,18.47
2019-05-07T17:50:47.202Z,18.35
2019-05-07T17:53:14.887Z,18.22
2019-05-07T17:55:43.643Z,18.12
2019-05-07T17:58:12.888Z,17.92
2019-05-07T18:00:38.861Z,17.78
2019-05-07T18:03:10.234Z,17.68
2019-05-07T18:05:37.712Z,17.50
2019-05-07T18:08:05.186Z,17.38
2019-05-07T18:10:32.975Z,17.24
2019-05-07T18:13:00.520Z,17.09
2019-05-07T18:15:27.991Z,16.97
2019-05-07T18:18:00.301Z,16.82
2019-05-07T18:20:25.946Z,16.79
2019-05-07T18:22:53.532Z,16.77
2019-05-07T18:25:21.747Z,16.74
2019-05-07T18:27:48.574Z,16.67
2019-05-07T18:30:16.119Z,16.60
2019-05-07T18:32:44.536Z,16.55
2019-05-07T18:35:12.604Z,16.47
2019-05-07T18:37:41.713Z,16.43
2019-05-07T18:40:07.332Z,16.38
2019-05-07T18:42:34.808Z,16.33
2019-05-07T18:45:02.340Z,16.29
2019-05-07T18:47:29.798Z,16.17
2019-05-07T18:49:57.370Z,16.10
2019-05-07T18:52:25.020Z,16.05
2019-05-07T18:54:52.469Z,15.99
2019-05-07T18:57:22.244Z,15.95
2019-05-07T18:59:48.258Z,15.95
2019-05-07T19:02:15.760Z,15.81
2019-05-07T19:04:43.287Z,15.81
2019-05-07T19:07:13.045Z,15.82
2019-05-07T19:09:38.254Z,15.82
2019-05-07T19:12:05.846Z,15.71
2019-05-07T19:14:33.439Z,15.57
2019-05-07T19:17:03.006Z,15.48
2019-05-07T19:19:28.464Z,15.42
2019-05-07T19:21:55.931Z,15.43
2019-05-07T19:24:26.224Z,15.39
2019-05-07T19:26:52.882Z,15.36
2019-05-07T19:29:18.631Z,15.40
2019-05-07T19:31:46.853Z,15.44
2019-05-07T19:34:14.409Z,15.40
2019-05-07T19:36:42.440Z,15.41
2019-05-07T19:39:09.412Z,15.34
2019-05-07T19:41:36.923Z,15.39
2019-05-07T19:44:04.402Z,15.42
2019-05-07T19:46:32.420Z,15.44
2019-05-07T19:48:59.915Z,15.45
2019-05-07T19:51:27.396Z,15.51
2019-05-07T19:53:55.678Z,15.53
2019-05-07T19:56:23.254Z,15.60
2019-05-07T19:58:52.586Z,15.78
2019-05-07T20:01:18.469Z,16.07
2019-05-07T20:03:46.114Z,16.34
2019-05-07T20:06:13.724Z,16.61
2019-05-07T20:08:43.670Z,16.77
2019-05-07T20:11:12.034Z,16.92
2019-05-07T20:13:41.653Z,17.03
2019-05-07T20:16:24.677Z,17.09
2019-05-07T20:18:52.505Z,17.07
2019-05-07T20:21:22.692Z,17.08
2019-05-07T20:23:48.407Z,17.12
2019-05-07T20:26:15.892Z,17.17
2019-05-07T20:28:43.477Z,17.15
2019-05-07T20:31:12.174Z,17.21
2019-05-07T20:33:43.797Z,17.27
2019-05-07T20:36:11.254Z,17.26
2019-05-07T20:38:38.892Z,17.24
2019-05-07T20:41:06.545Z,17.22
2019-05-07T20:43:33.999Z,17.18
2019-05-07T20:46:02.649Z,17.17
2019-05-07T20:48:32.746Z,17.12
2019-05-07T20:51:00.518Z,17.09
2019-05-07T20:53:34.740Z,17.08
2019-05-07T20:56:04.473Z,17.07
2019-05-07T20:58:32.862Z,17.05
2019-05-07T21:00:59.603Z,17.02
2019-05-07T21:03:27.049Z,16.99
2019-05-07T21:05:54.553Z,16.96
2019-05-07T21:08:23.302Z,16.93
2019-05-07T21:10:53.238Z,16.95
2019-05-07T21:13:28.526Z,16.95
2019-05-07T21:15:46.061Z,16.88
2019-05-07T21:18:13.550Z,16.84
2019-05-07T21:20:42.072Z,16.82
2019-05-07T21:23:09.030Z,16.82
2019-05-07T21:25:43.555Z,16.86
2019-05-07T21:28:04.311Z,16.85
2019-05-07T21:30:32.920Z,16.79
2019-05-07T21:33:00.970Z,16.78
2019-05-07T21:35:28.960Z,16.81
2019-05-07T21:37:56.656Z,16.77
2019-05-07T21:40:25.688Z,16.76
2019-05-07T21:42:53.387Z,16.77
2019-05-07T21:45:23.837Z,16.72
2019-05-07T21:47:52.055Z,16.69
2019-05-07T21:50:19.150Z,16.66
2019-05-07T21:53:04.235Z,16.62
2019-05-07T21:55:33.515Z,16.59
2019-05-07T21:58:06.768Z,16.62
2019-05-07T22:00:44.158Z,16.64
2019-05-07T22:03:12.598Z,16.65
2019-05-07T22:05:44.062Z,16.66
2019-05-07T22:08:07.684Z,16.68
2019-05-07T22:10:35.146Z,16.69
2019-05-07T22:13:03.284Z,16.70
2019-05-07T22:15:31.902Z,16.75
2019-05-07T22:17:57.685Z,16.77
2019-05-07T22:20:25.171Z,16.79
2019-05-07T22:22:52.656Z,16.80
2019-05-07T22:25:22.159Z,16.83
2019-05-07T22:27:47.639Z,16.84
2019-05-07T22:30:17.730Z,16.85
2019-05-07T22:32:45.936Z,16.82
2019-05-07T22:35:18.099Z,16.81
2019-05-07T22:37:45.561Z,16.81
2019-05-07T22:40:13.068Z,16.81
2019-05-07T22:42:40.502Z,16.79
2019-05-07T22:45:07.961Z,16.80
2019-05-07T22:47:35.412Z,16.76
2019-05-07T22:50:02.993Z,16.75
2019-05-07T22:52:32.133Z,16.74
2019-05-07T22:54:58.131Z,16.73
2019-05-07T22:57:41.851Z,16.72
2019-05-07T23:00:06.986Z,16.71
2019-05-07T23:02:34.474Z,16.67
2019-05-07T23:05:02.855Z,16.66
2019-05-07T23:07:29.450Z,16.57
2019-05-07T23:09:56.944Z,16.51
2019-05-07T23:12:24.395Z,16.47
2019-05-07T23:14:53.610Z,16.44
2019-05-07T23:17:19.343Z,16.43
2019-05-07T23:19:46.783Z,16.39
2019-05-07T23:22:14.283Z,16.40
2019-05-07T23:24:42.607Z,16.41
2019-05-07T23:27:09.250Z,16.43
2019-05-07T23:29:36.782Z,16.43
2019-05-07T23:32:04.230Z,16.44
2019-05-07T23:34:32.587Z,16.44
2019-05-07T23:36:59.171Z,16.45
2019-05-07T23:39:29.762Z,16.42
2019-05-07T23:41:57.203Z,16.41
2019-05-07T23:44:24.691Z,16.37
2019-05-07T23:46:52.166Z,16.32
2019-05-07T23:49:19.604Z,16.26
2019-05-07T23:51:47.062Z,16.21
2019-05-07T23:54:14.508Z,16.17
2019-05-07T23:56:42.769Z,16.11
2019-05-07T23:59:09.493Z,16.04
